sensor_id;sensor_type;location;lat;lon;timestamp;P1;durP1;ratioP1;P2;durP2;ratioP2
55601;SDS011;59921;51.332;12.410;2023-04-06T00:01:27;3.47;;;2.40;;
55601;SDS011;59921;51.332;12.410;2023-04-06T00:03:52;3.67;;;2.65;;
55601;SDS011;59921;51.332;12.410;2023-04-06T00:06:18;4.20;;;2.63;;
55601;SDS011;59921;51.332;12.410;2023-04-06T00:08:44;3.30;;;2.35;;
55601;SDS011;59921;51.332;12.410;2023-04-06T00:11:09;3.58;;;2.47;;
55601;SDS011;59921;51.332;12.410;2023-04-06T00:13:35;3.22;;;2.20;;
55601;SDS011;59921;51.332;12.410;2023-04-06T00:16:01;3.55;;;2.30;;
55601;SDS011;59921;51.332;12.410;2023-04-06T00:18:27;3.80;;;2.42;;
55601;SDS011;59921;51.332;12.410;2023-04-06T00:20:52;3.63;;;2.42;;
55601;SDS011;59921;51.332;12.410;2023-04-06T00:23:18;3.22;;;2.20;;
55601;SDS011;59921;51.332;12.410;2023-04-06T00:25:44;4.03;;;2.58;;
55601;SDS011;59921;51.332;12.410;2023-04-06T00:28:09;3.92;;;2.65;;
55601;SDS011;59921;51.332;12.410;2023-04-06T00:30:35;4.60;;;2.42;;
55601;SDS011;59921;51.332;12.410;2023-04-06T00:33:01;3.42;;;2.50;;
55601;SDS011;59921;51.332;12.410;2023-04-06T00:35:26;3.42;;;2.42;;
55601;SDS011;59921;51.332;12.410;2023-04-06T00:37:52;3.33;;;2.20;;
55601;SDS011;59921;51.332;12.410;2023-04-06T00:40:18;3.80;;;2.40;;
55601;SDS011;59921;51.332;12.410;2023-04-06T00:42:44;3.83;;;2.50;;
55601;SDS011;59921;51.332;12.410;2023-04-06T00:45:10;4.00;;;2.55;;
55601;SDS011;59921;51.332;12.410;2023-04-06T00:47:36;4.45;;;2.63;;
55601;SDS011;59921;51.332;12.410;2023-04-06T00:50:01;4.35;;;2.50;;
55601;SDS011;59921;51.332;12.410;2023-04-06T00:52:27;3.75;;;2.50;;
55601;SDS011;59921;51.332;12.410;2023-04-06T00:54:53;3.45;;;2.40;;
55601;SDS011;59921;51.332;12.410;2023-04-06T00:57:19;3.80;;;2.40;;
55601;SDS011;59921;51.332;12.410;2023-04-06T00:59:45;4.15;;;2.63;;
55601;SDS011;59921;51.332;12.410;2023-04-06T01:02:13;3.47;;;2.42;;
55601;SDS011;59921;51.332;12.410;2023-04-06T01:04:40;3.70;;;2.50;;
55601;SDS011;59921;51.332;12.410;2023-04-06T01:07:06;3.88;;;2.60;;
55601;SDS011;59921;51.332;12.410;2023-04-06T01:09:31;3.75;;;2.40;;
55601;SDS011;59921;51.332;12.410;2023-04-06T01:11:59;3.50;;;2.35;;
55601;SDS011;59921;51.332;12.410;2023-04-06T01:14:25;4.05;;;2.70;;
55601;SDS011;59921;51.332;12.410;2023-04-06T01:16:51;3.30;;;2.33;;
55601;SDS011;59921;51.332;12.410;2023-04-06T01:19:17;3.80;;;2.20;;
55601;SDS011;59921;51.332;12.410;2023-04-06T01:21:43;3.55;;;2.42;;
55601;SDS011;59921;51.332;12.410;2023-04-06T01:24:09;4.50;;;2.63;;
55601;SDS011;59921;51.332;12.410;2023-04-06T01:26:35;3.33;;;2.30;;
55601;SDS011;59921;51.332;12.410;2023-04-06T01:29:02;3.55;;;2.30;;
55601;SDS011;59921;51.332;12.410;2023-04-06T01:31:29;4.43;;;2.47;;
55601;SDS011;59921;51.332;12.410;2023-04-06T01:33:55;3.50;;;2.50;;
55601;SDS011;59921;51.332;12.410;2023-04-06T01:36:21;3.28;;;2.50;;
55601;SDS011;59921;51.332;12.410;2023-04-06T01:38:47;4.32;;;2.70;;
55601;SDS011;59921;51.332;12.410;2023-04-06T01:41:12;3.15;;;2.40;;
55601;SDS011;59921;51.332;12.410;2023-04-06T01:43:38;3.55;;;2.53;;
55601;SDS011;59921;51.332;12.410;2023-04-06T01:46:04;3.08;;;2.30;;
55601;SDS011;59921;51.332;12.410;2023-04-06T01:48:30;3.53;;;2.15;;
55601;SDS011;59921;51.332;12.410;2023-04-06T01:50:56;3.63;;;2.60;;
55601;SDS011;59921;51.332;12.410;2023-04-06T01:53:22;3.13;;;2.10;;
55601;SDS011;59921;51.332;12.410;2023-04-06T01:55:47;3.55;;;2.50;;
55601;SDS011;59921;51.332;12.410;2023-04-06T01:58:13;3.58;;;2.30;;
55601;SDS011;59921;51.332;12.410;2023-04-06T02:00:40;3.55;;;2.42;;
55601;SDS011;59921;51.332;12.410;2023-04-06T02:03:05;3.50;;;2.38;;
55601;SDS011;59921;51.332;12.410;2023-04-06T02:05:32;3.30;;;2.33;;
55601;SDS011;59921;51.332;12.410;2023-04-06T02:08:03;3.65;;;2.33;;
55601;SDS011;59921;51.332;12.410;2023-04-06T02:10:30;3.28;;;2.38;;
55601;SDS011;59921;51.332;12.410;2023-04-06T02:12:57;3.40;;;2.42;;
55601;SDS011;59921;51.332;12.410;2023-04-06T02:15:22;3.83;;;2.42;;
55601;SDS011;59921;51.332;12.410;2023-04-06T02:17:48;3.42;;;2.30;;
55601;SDS011;59921;51.332;12.410;2023-04-06T02:20:14;3.22;;;2.38;;
55601;SDS011;59921;51.332;12.410;2023-04-06T02:22:40;3.20;;;2.38;;
55601;SDS011;59921;51.332;12.410;2023-04-06T02:25:06;4.03;;;2.50;;
55601;SDS011;59921;51.332;12.410;2023-04-06T02:27:31;3.63;;;2.20;;
55601;SDS011;59921;51.332;12.410;2023-04-06T02:29:57;3.53;;;2.40;;
55601;SDS011;59921;51.332;12.410;2023-04-06T02:32:23;3.22;;;2.28;;
55601;SDS011;59921;51.332;12.410;2023-04-06T02:34:49;3.38;;;2.30;;
55601;SDS011;59921;51.332;12.410;2023-04-06T02:37:15;3.42;;;2.35;;
55601;SDS011;59921;51.332;12.410;2023-04-06T02:39:40;4.03;;;2.40;;
55601;SDS011;59921;51.332;12.410;2023-04-06T02:42:06;3.42;;;2.30;;
55601;SDS011;59921;51.332;12.410;2023-04-06T02:44:33;3.90;;;2.30;;
55601;SDS011;59921;51.332;12.410;2023-04-06T02:47:00;3.47;;;2.40;;
55601;SDS011;59921;51.332;12.410;2023-04-06T02:49:25;4.03;;;2.78;;
55601;SDS011;59921;51.332;12.410;2023-04-06T02:51:51;3.10;;;2.20;;
55601;SDS011;59921;51.332;12.410;2023-04-06T02:54:17;3.67;;;2.45;;
55601;SDS011;59921;51.332;12.410;2023-04-06T02:56:43;3.35;;;2.33;;
55601;SDS011;59921;51.332;12.410;2023-04-06T02:59:08;3.03;;;2.30;;
55601;SDS011;59921;51.332;12.410;2023-04-06T03:01:34;3.30;;;2.20;;
55601;SDS011;59921;51.332;12.410;2023-04-06T03:04:01;3.30;;;2.30;;
55601;SDS011;59921;51.332;12.410;2023-04-06T03:06:27;3.00;;;2.20;;
55601;SDS011;59921;51.332;12.410;2023-04-06T03:08:52;3.70;;;2.42;;
55601;SDS011;59921;51.332;12.410;2023-04-06T03:11:18;3.83;;;2.38;;
55601;SDS011;59921;51.332;12.410;2023-04-06T03:13:44;3.70;;;2.42;;
55601;SDS011;59921;51.332;12.410;2023-04-06T03:16:10;2.65;;;2.20;;
55601;SDS011;59921;51.332;12.410;2023-04-06T03:18:35;3.60;;;2.30;;
55601;SDS011;59921;51.332;12.410;2023-04-06T03:21:01;3.60;;;2.40;;
55601;SDS011;59921;51.332;12.410;2023-04-06T03:23:27;2.95;;;2.15;;
55601;SDS011;59921;51.332;12.410;2023-04-06T03:25:52;3.35;;;2.28;;
55601;SDS011;59921;51.332;12.410;2023-04-06T03:28:18;3.00;;;2.30;;
55601;SDS011;59921;51.332;12.410;2023-04-06T03:30:44;2.78;;;1.92;;
55601;SDS011;59921;51.332;12.410;2023-04-06T03:33:10;2.97;;;2.17;;
55601;SDS011;59921;51.332;12.410;2023-04-06T03:35:36;4.18;;;2.40;;
55601;SDS011;59921;51.332;12.410;2023-04-06T03:38:02;3.28;;;2.30;;
55601;SDS011;59921;51.332;12.410;2023-04-06T03:40:29;3.17;;;2.10;;
55601;SDS011;59921;51.332;12.410;2023-04-06T03:42:55;3.92;;;2.22;;
55601;SDS011;59921;51.332;12.410;2023-04-06T03:45:21;2.85;;;2.05;;
55601;SDS011;59921;51.332;12.410;2023-04-06T03:47:46;3.33;;;2.30;;
55601;SDS011;59921;51.332;12.410;2023-04-06T03:50:12;3.35;;;2.17;;
55601;SDS011;59921;51.332;12.410;2023-04-06T03:52:38;3.58;;;2.30;;
55601;SDS011;59921;51.332;12.410;2023-04-06T03:55:04;3.75;;;2.10;;
55601;SDS011;59921;51.332;12.410;2023-04-06T03:57:30;2.92;;;2.20;;
55601;SDS011;59921;51.332;12.410;2023-04-06T04:02:25;3.13;;;2.17;;
55601;SDS011;59921;51.332;12.410;2023-04-06T04:04:51;3.35;;;2.35;;
55601;SDS011;59921;51.332;12.410;2023-04-06T04:07:16;2.60;;;1.92;;
55601;SDS011;59921;51.332;12.410;2023-04-06T04:09:42;3.33;;;2.20;;
55601;SDS011;59921;51.332;12.410;2023-04-06T04:12:08;3.55;;;2.55;;
55601;SDS011;59921;51.332;12.410;2023-04-06T04:14:34;3.53;;;2.25;;
55601;SDS011;59921;51.332;12.410;2023-04-06T04:16:59;3.22;;;2.15;;
55601;SDS011;59921;51.332;12.410;2023-04-06T04:19:25;3.67;;;2.25;;
55601;SDS011;59921;51.332;12.410;2023-04-06T04:21:50;3.63;;;2.20;;
55601;SDS011;59921;51.332;12.410;2023-04-06T04:24:16;3.13;;;2.17;;
55601;SDS011;59921;51.332;12.410;2023-04-06T04:26:42;3.30;;;2.30;;
55601;SDS011;59921;51.332;12.410;2023-04-06T04:29:07;4.00;;;2.35;;
55601;SDS011;59921;51.332;12.410;2023-04-06T04:31:33;3.22;;;2.10;;
55601;SDS011;59921;51.332;12.410;2023-04-06T04:33:59;4.00;;;2.42;;
55601;SDS011;59921;51.332;12.410;2023-04-06T04:36:25;3.55;;;2.20;;
55601;SDS011;59921;51.332;12.410;2023-04-06T04:38:54;3.65;;;2.20;;
55601;SDS011;59921;51.332;12.410;2023-04-06T04:41:20;3.85;;;2.40;;
55601;SDS011;59921;51.332;12.410;2023-04-06T04:43:45;2.88;;;2.08;;
55601;SDS011;59921;51.332;12.410;2023-04-06T04:46:11;3.25;;;2.28;;
55601;SDS011;59921;51.332;12.410;2023-04-06T04:48:36;2.47;;;1.90;;
55601;SDS011;59921;51.332;12.410;2023-04-06T04:51:03;2.50;;;1.85;;
55601;SDS011;59921;51.332;12.410;2023-04-06T04:53:30;3.13;;;2.20;;
55601;SDS011;59921;51.332;12.410;2023-04-06T04:55:55;2.88;;;2.13;;
55601;SDS011;59921;51.332;12.410;2023-04-06T04:58:21;4.43;;;2.20;;
55601;SDS011;59921;51.332;12.410;2023-04-06T05:00:46;2.78;;;1.85;;
55601;SDS011;59921;51.332;12.410;2023-04-06T05:03:14;3.10;;;2.10;;
55601;SDS011;59921;51.332;12.410;2023-04-06T05:05:45;2.95;;;2.10;;
55601;SDS011;59921;51.332;12.410;2023-04-06T05:08:11;3.80;;;2.20;;
55601;SDS011;59921;51.332;12.410;2023-04-06T05:10:39;2.88;;;2.00;;
55601;SDS011;59921;51.332;12.410;2023-04-06T05:13:05;3.10;;;2.17;;
55601;SDS011;59921;51.332;12.410;2023-04-06T05:15:31;3.20;;;2.13;;
55601;SDS011;59921;51.332;12.410;2023-04-06T05:17:59;3.65;;;2.45;;
55601;SDS011;59921;51.332;12.410;2023-04-06T05:20:25;3.75;;;2.25;;
55601;SDS011;59921;51.332;12.410;2023-04-06T05:22:51;2.95;;;2.00;;
55601;SDS011;59921;51.332;12.410;2023-04-06T05:25:17;2.60;;;1.90;;
55601;SDS011;59921;51.332;12.410;2023-04-06T05:27:43;2.83;;;1.90;;
55601;SDS011;59921;51.332;12.410;2023-04-06T05:30:08;3.13;;;2.03;;
55601;SDS011;59921;51.332;12.410;2023-04-06T05:32:34;2.97;;;2.10;;
55601;SDS011;59921;51.332;12.410;2023-04-06T05:35:00;3.22;;;2.20;;
55601;SDS011;59921;51.332;12.410;2023-04-06T05:37:26;2.90;;;2.00;;
55601;SDS011;59921;51.332;12.410;2023-04-06T05:39:51;3.28;;;2.03;;
55601;SDS011;59921;51.332;12.410;2023-04-06T05:42:17;2.83;;;2.03;;
55601;SDS011;59921;51.332;12.410;2023-04-06T05:44:43;3.20;;;1.95;;
55601;SDS011;59921;51.332;12.410;2023-04-06T05:47:08;2.78;;;1.90;;
55601;SDS011;59921;51.332;12.410;2023-04-06T05:49:34;3.03;;;1.90;;
55601;SDS011;59921;51.332;12.410;2023-04-06T05:52:00;2.78;;;1.90;;
55601;SDS011;59921;51.332;12.410;2023-04-06T05:54:26;3.47;;;2.28;;
55601;SDS011;59921;51.332;12.410;2023-04-06T05:56:52;4.10;;;2.10;;
55601;SDS011;59921;51.332;12.410;2023-04-06T05:59:17;2.08;;;1.70;;
55601;SDS011;59921;51.332;12.410;2023-04-06T06:01:43;2.67;;;2.10;;
55601;SDS011;59921;51.332;12.410;2023-04-06T06:04:08;3.72;;;2.22;;
55601;SDS011;59921;51.332;12.410;2023-04-06T06:06:34;2.72;;;2.10;;
55601;SDS011;59921;51.332;12.410;2023-04-06T06:09:00;3.00;;;2.08;;
55601;SDS011;59921;51.332;12.410;2023-04-06T06:11:28;2.65;;;1.90;;
55601;SDS011;59921;51.332;12.410;2023-04-06T06:13:54;2.78;;;1.90;;
55601;SDS011;59921;51.332;12.410;2023-04-06T06:16:20;3.03;;;1.90;;
55601;SDS011;59921;51.332;12.410;2023-04-06T06:18:46;3.67;;;2.08;;
55601;SDS011;59921;51.332;12.410;2023-04-06T06:21:12;3.30;;;2.17;;
55601;SDS011;59921;51.332;12.410;2023-04-06T06:23:37;3.30;;;2.10;;
55601;SDS011;59921;51.332;12.410;2023-04-06T06:26:03;2.67;;;2.00;;
55601;SDS011;59921;51.332;12.410;2023-04-06T06:28:30;3.80;;;2.10;;
55601;SDS011;59921;51.332;12.410;2023-04-06T06:30:56;3.65;;;1.95;;
55601;SDS011;59921;51.332;12.410;2023-04-06T06:33:21;3.20;;;2.20;;
55601;SDS011;59921;51.332;12.410;2023-04-06T06:35:47;2.58;;;1.83;;
55601;SDS011;59921;51.332;12.410;2023-04-06T06:38:13;2.72;;;1.88;;
55601;SDS011;59921;51.332;12.410;2023-04-06T06:40:40;2.47;;;1.90;;
55601;SDS011;59921;51.332;12.410;2023-04-06T06:43:06;2.58;;;1.88;;
55601;SDS011;59921;51.332;12.410;2023-04-06T06:45:31;3.17;;;1.98;;
55601;SDS011;59921;51.332;12.410;2023-04-06T06:47:57;3.17;;;1.90;;
55601;SDS011;59921;51.332;12.410;2023-04-06T06:50:23;3.30;;;1.83;;
55601;SDS011;59921;51.332;12.410;2023-04-06T06:52:49;2.78;;;1.95;;
55601;SDS011;59921;51.332;12.410;2023-04-06T06:55:14;2.88;;;2.03;;
55601;SDS011;59921;51.332;12.410;2023-04-06T06:57:40;2.30;;;1.80;;
55601;SDS011;59921;51.332;12.410;2023-04-06T07:00:08;3.17;;;2.03;;
55601;SDS011;59921;51.332;12.410;2023-04-06T07:02:34;2.58;;;1.83;;
55601;SDS011;59921;51.332;12.410;2023-04-06T07:05:01;3.38;;;2.03;;
55601;SDS011;59921;51.332;12.410;2023-04-06T07:07:27;3.63;;;1.90;;
55601;SDS011;59921;51.332;12.410;2023-04-06T07:09:53;2.60;;;1.90;;
55601;SDS011;59921;51.332;12.410;2023-04-06T07:12:18;3.88;;;2.08;;
55601;SDS011;59921;51.332;12.410;2023-04-06T07:14:44;2.92;;;1.90;;
55601;SDS011;59921;51.332;12.410;2023-04-06T07:17:10;2.83;;;1.73;;
55601;SDS011;59921;51.332;12.410;2023-04-06T07:19:36;3.67;;;1.98;;
55601;SDS011;59921;51.332;12.410;2023-04-06T07:22:01;3.22;;;2.00;;
55601;SDS011;59921;51.332;12.410;2023-04-06T07:24:28;2.88;;;1.80;;
55601;SDS011;59921;51.332;12.410;2023-04-06T07:26:54;3.70;;;2.00;;
55601;SDS011;59921;51.332;12.410;2023-04-06T07:29:21;2.95;;;1.70;;
55601;SDS011;59921;51.332;12.410;2023-04-06T07:31:47;2.65;;;1.80;;
55601;SDS011;59921;51.332;12.410;2023-04-06T07:34:14;3.35;;;2.00;;
55601;SDS011;59921;51.332;12.410;2023-04-06T07:36:40;2.97;;;1.80;;
55601;SDS011;59921;51.332;12.410;2023-04-06T07:39:05;2.72;;;1.83;;
55601;SDS011;59921;51.332;12.410;2023-04-06T07:41:32;4.07;;;2.00;;
55601;SDS011;59921;51.332;12.410;2023-04-06T07:43:57;2.47;;;1.75;;
55601;SDS011;59921;51.332;12.410;2023-04-06T07:46:23;2.88;;;1.67;;
55601;SDS011;59921;51.332;12.410;2023-04-06T07:48:49;2.60;;;1.80;;
55601;SDS011;59921;51.332;12.410;2023-04-06T07:51:16;2.63;;;1.88;;
55601;SDS011;59921;51.332;12.410;2023-04-06T07:53:43;2.88;;;1.70;;
55601;SDS011;59921;51.332;12.410;2023-04-06T07:56:09;2.75;;;1.80;;
55601;SDS011;59921;51.332;12.410;2023-04-06T07:58:35;2.75;;;1.73;;
55601;SDS011;59921;51.332;12.410;2023-04-06T08:01:01;3.55;;;1.88;;
55601;SDS011;59921;51.332;12.410;2023-04-06T08:03:27;2.78;;;1.88;;
55601;SDS011;59921;51.332;12.410;2023-04-06T08:05:53;3.72;;;1.95;;
55601;SDS011;59921;51.332;12.410;2023-04-06T08:08:18;2.65;;;1.80;;
55601;SDS011;59921;51.332;12.410;2023-04-06T08:10:46;2.45;;;1.70;;
55601;SDS011;59921;51.332;12.410;2023-04-06T08:13:12;2.67;;;1.70;;
55601;SDS011;59921;51.332;12.410;2023-04-06T08:15:38;2.63;;;1.77;;
55601;SDS011;59921;51.332;12.410;2023-04-06T08:18:03;2.75;;;1.70;;
55601;SDS011;59921;51.332;12.410;2023-04-06T08:20:29;3.97;;;1.85;;
55601;SDS011;59921;51.332;12.410;2023-04-06T08:22:55;2.55;;;1.80;;
55601;SDS011;59921;51.332;12.410;2023-04-06T08:25:20;3.22;;;1.95;;
55601;SDS011;59921;51.332;12.410;2023-04-06T08:27:46;3.20;;;1.80;;
55601;SDS011;59921;51.332;12.410;2023-04-06T08:30:11;2.78;;;1.70;;
55601;SDS011;59921;51.332;12.410;2023-04-06T08:32:37;2.53;;;1.67;;
55601;SDS011;59921;51.332;12.410;2023-04-06T08:35:02;3.05;;;1.70;;
55601;SDS011;59921;51.332;12.410;2023-04-06T08:37:28;2.67;;;1.73;;
55601;SDS011;59921;51.332;12.410;2023-04-06T08:39:54;2.88;;;1.75;;
55601;SDS011;59921;51.332;12.410;2023-04-06T08:42:20;1.83;;;1.50;;
55601;SDS011;59921;51.332;12.410;2023-04-06T08:44:47;3.08;;;2.10;;
55601;SDS011;59921;51.332;12.410;2023-04-06T08:47:17;3.47;;;2.03;;
55601;SDS011;59921;51.332;12.410;2023-04-06T08:49:43;4.05;;;2.10;;
55601;SDS011;59921;51.332;12.410;2023-04-06T08:52:10;2.47;;;1.80;;
55601;SDS011;59921;51.332;12.410;2023-04-06T08:54:36;2.53;;;1.70;;
55601;SDS011;59921;51.332;12.410;2023-04-06T08:57:02;3.55;;;1.92;;
55601;SDS011;59921;51.332;12.410;2023-04-06T08:59:30;2.83;;;1.63;;
55601;SDS011;59921;51.332;12.410;2023-04-06T09:01:56;3.45;;;1.90;;
55601;SDS011;59921;51.332;12.410;2023-04-06T09:04:22;3.30;;;1.90;;
55601;SDS011;59921;51.332;12.410;2023-04-06T09:06:48;2.78;;;1.83;;
55601;SDS011;59921;51.332;12.410;2023-04-06T09:09:15;3.65;;;1.95;;
55601;SDS011;59921;51.332;12.410;2023-04-06T09:14:12;3.38;;;1.73;;
55601;SDS011;59921;51.332;12.410;2023-04-06T09:16:39;4.10;;;1.92;;
55601;SDS011;59921;51.332;12.410;2023-04-06T09:19:05;2.90;;;1.88;;
55601;SDS011;59921;51.332;12.410;2023-04-06T09:21:32;2.92;;;2.03;;
55601;SDS011;59921;51.332;12.410;2023-04-06T09:23:58;3.42;;;1.83;;
55601;SDS011;59921;51.332;12.410;2023-04-06T09:26:25;3.88;;;2.13;;
55601;SDS011;59921;51.332;12.410;2023-04-06T09:28:55;3.10;;;2.03;;
55601;SDS011;59921;51.332;12.410;2023-04-06T09:31:26;3.13;;;1.85;;
55601;SDS011;59921;51.332;12.410;2023-04-06T09:33:53;2.72;;;1.77;;
55601;SDS011;59921;51.332;12.410;2023-04-06T09:36:20;3.40;;;2.00;;
55601;SDS011;59921;51.332;12.410;2023-04-06T09:39:03;3.28;;;1.95;;
55601;SDS011;59921;51.332;12.410;2023-04-06T09:41:30;3.83;;;2.08;;
55601;SDS011;59921;51.332;12.410;2023-04-06T09:44:12;3.55;;;1.90;;
55601;SDS011;59921;51.332;12.410;2023-04-06T09:46:40;3.20;;;1.90;;
55601;SDS011;59921;51.332;12.410;2023-04-06T09:49:06;2.47;;;1.80;;
55601;SDS011;59921;51.332;12.410;2023-04-06T09:51:40;2.72;;;2.00;;
55601;SDS011;59921;51.332;12.410;2023-04-06T09:54:08;3.70;;;1.60;;
55601;SDS011;59921;51.332;12.410;2023-04-06T09:56:43;2.60;;;1.75;;
55601;SDS011;59921;51.332;12.410;2023-04-06T09:59:13;3.00;;;2.00;;
55601;SDS011;59921;51.332;12.410;2023-04-06T10:01:45;2.47;;;1.67;;
55601;SDS011;59921;51.332;12.410;2023-04-06T10:07:11;3.25;;;1.60;;
55601;SDS011;59921;51.332;12.410;2023-04-06T10:09:38;3.38;;;1.92;;
55601;SDS011;59921;51.332;12.410;2023-04-06T10:12:04;2.72;;;1.88;;
55601;SDS011;59921;51.332;12.410;2023-04-06T10:14:32;2.92;;;1.70;;
55601;SDS011;59921;51.332;12.410;2023-04-06T10:17:02;2.22;;;1.60;;
55601;SDS011;59921;51.332;12.410;2023-04-06T10:19:32;2.55;;;1.73;;
55601;SDS011;59921;51.332;12.410;2023-04-06T10:22:05;2.78;;;1.98;;
55601;SDS011;59921;51.332;12.410;2023-04-06T10:24:33;2.85;;;1.80;;
55601;SDS011;59921;51.332;12.410;2023-04-06T10:27:01;2.35;;;1.52;;
55601;SDS011;59921;51.332;12.410;2023-04-06T10:29:28;3.95;;;1.80;;
55601;SDS011;59921;51.332;12.410;2023-04-06T10:32:06;2.95;;;1.92;;
55601;SDS011;59921;51.332;12.410;2023-04-06T10:34:34;3.63;;;1.85;;
55601;SDS011;59921;51.332;12.410;2023-04-06T10:37:10;2.90;;;1.80;;
55601;SDS011;59921;51.332;12.410;2023-04-06T10:39:52;3.15;;;1.80;;
55601;SDS011;59921;51.332;12.410;2023-04-06T10:42:36;2.58;;;1.92;;
55601;SDS011;59921;51.332;12.410;2023-04-06T10:45:05;2.70;;;1.80;;
55601;SDS011;59921;51.332;12.410;2023-04-06T10:47:38;3.05;;;2.03;;
55601;SDS011;59921;51.332;12.410;2023-04-06T10:50:05;3.05;;;1.80;;
55601;SDS011;59921;51.332;12.410;2023-04-06T10:52:31;3.13;;;1.75;;
55601;SDS011;59921;51.332;12.410;2023-04-06T10:54:57;3.00;;;1.67;;
55601;SDS011;59921;51.332;12.410;2023-04-06T10:57:29;2.50;;;1.70;;
55601;SDS011;59921;51.332;12.410;2023-04-06T10:59:56;2.70;;;1.77;;
55601;SDS011;59921;51.332;12.410;2023-04-06T11:02:21;2.85;;;1.95;;
55601;SDS011;59921;51.332;12.410;2023-04-06T11:04:57;3.33;;;1.95;;
55601;SDS011;59921;51.332;12.410;2023-04-06T11:07:24;2.53;;;1.83;;
55601;SDS011;59921;51.332;12.410;2023-04-06T11:09:51;2.55;;;1.60;;
55601;SDS011;59921;51.332;12.410;2023-04-06T11:12:25;3.08;;;1.75;;
55601;SDS011;59921;51.332;12.410;2023-04-06T11:14:53;2.90;;;1.63;;
55601;SDS011;59921;51.332;12.410;2023-04-06T11:17:32;3.25;;;2.17;;
55601;SDS011;59921;51.332;12.410;2023-04-06T11:19:59;4.20;;;1.85;;
55601;SDS011;59921;51.332;12.410;2023-04-06T11:22:25;2.92;;;1.80;;
55601;SDS011;59921;51.332;12.410;2023-04-06T11:24:52;3.30;;;1.80;;
55601;SDS011;59921;51.332;12.410;2023-04-06T11:27:19;2.55;;;1.85;;
55601;SDS011;59921;51.332;12.410;2023-04-06T11:29:45;3.28;;;1.77;;
55601;SDS011;59921;51.332;12.410;2023-04-06T11:32:19;2.75;;;1.90;;
55601;SDS011;59921;51.332;12.410;2023-04-06T11:34:46;2.72;;;1.63;;
55601;SDS011;59921;51.332;12.410;2023-04-06T11:37:13;2.78;;;1.90;;
55601;SDS011;59921;51.332;12.410;2023-04-06T11:39:39;2.80;;;1.80;;
55601;SDS011;59921;51.332;12.410;2023-04-06T11:42:07;2.40;;;1.70;;
55601;SDS011;59921;51.332;12.410;2023-04-06T11:44:36;2.55;;;1.80;;
55601;SDS011;59921;51.332;12.410;2023-04-06T11:47:04;2.22;;;1.70;;
55601;SDS011;59921;51.332;12.410;2023-04-06T11:49:32;3.13;;;2.00;;
55601;SDS011;59921;51.332;12.410;2023-04-06T11:51:59;3.03;;;1.90;;
55601;SDS011;59921;51.332;12.410;2023-04-06T11:54:35;2.47;;;1.80;;
55601;SDS011;59921;51.332;12.410;2023-04-06T11:57:05;2.50;;;1.70;;
55601;SDS011;59921;51.332;12.410;2023-04-06T11:59:34;3.00;;;1.90;;
55601;SDS011;59921;51.332;12.410;2023-04-06T12:02:02;2.45;;;1.73;;
55601;SDS011;59921;51.332;12.410;2023-04-06T12:04:29;3.13;;;2.00;;
55601;SDS011;59921;51.332;12.410;2023-04-06T12:06:55;3.15;;;1.98;;
55601;SDS011;59921;51.332;12.410;2023-04-06T12:09:21;2.38;;;2.00;;
55601;SDS011;59921;51.332;12.410;2023-04-06T12:11:47;2.45;;;1.90;;
55601;SDS011;59921;51.332;12.410;2023-04-06T12:14:13;2.80;;;1.88;;
55601;SDS011;59921;51.332;12.410;2023-04-06T12:16:39;3.45;;;2.10;;
55601;SDS011;59921;51.332;12.410;2023-04-06T12:19:05;2.83;;;1.98;;
55601;SDS011;59921;51.332;12.410;2023-04-06T12:21:32;3.35;;;2.03;;
55601;SDS011;59921;51.332;12.410;2023-04-06T12:23:58;2.90;;;1.92;;
55601;SDS011;59921;51.332;12.410;2023-04-06T12:26:24;3.58;;;2.22;;
55601;SDS011;59921;51.332;12.410;2023-04-06T12:28:51;3.67;;;2.35;;
55601;SDS011;59921;51.332;12.410;2023-04-06T12:31:17;3.40;;;2.20;;
55601;SDS011;59921;51.332;12.410;2023-04-06T12:33:49;2.40;;;1.88;;
55601;SDS011;59921;51.332;12.410;2023-04-06T12:36:16;3.10;;;2.22;;
55601;SDS011;59921;51.332;12.410;2023-04-06T12:38:46;3.20;;;2.10;;
55601;SDS011;59921;51.332;12.410;2023-04-06T12:41:13;2.80;;;2.00;;
55601;SDS011;59921;51.332;12.410;2023-04-06T12:43:42;3.25;;;2.20;;
55601;SDS011;59921;51.332;12.410;2023-04-06T12:46:08;3.13;;;2.17;;
55601;SDS011;59921;51.332;12.410;2023-04-06T12:48:35;3.33;;;2.15;;
55601;SDS011;59921;51.332;12.410;2023-04-06T12:51:02;2.42;;;2.00;;
55601;SDS011;59921;51.332;12.410;2023-04-06T12:53:29;3.03;;;2.00;;
55601;SDS011;59921;51.332;12.410;2023-04-06T12:55:54;3.72;;;2.10;;
55601;SDS011;59921;51.332;12.410;2023-04-06T12:58:21;3.03;;;2.17;;
55601;SDS011;59921;51.332;12.410;2023-04-06T13:00:48;3.00;;;2.10;;
55601;SDS011;59921;51.332;12.410;2023-04-06T13:03:16;3.42;;;1.90;;
55601;SDS011;59921;51.332;12.410;2023-04-06T13:05:45;3.42;;;2.08;;
55601;SDS011;59921;51.332;12.410;2023-04-06T13:08:12;3.05;;;1.92;;
55601;SDS011;59921;51.332;12.410;2023-04-06T13:10:48;2.58;;;2.00;;
55601;SDS011;59921;51.332;12.410;2023-04-06T13:13:15;3.13;;;2.03;;
55601;SDS011;59921;51.332;12.410;2023-04-06T13:15:41;2.78;;;1.95;;
55601;SDS011;59921;51.332;12.410;2023-04-06T13:18:07;2.70;;;2.13;;
55601;SDS011;59921;51.332;12.410;2023-04-06T13:20:33;2.75;;;2.00;;
55601;SDS011;59921;51.332;12.410;2023-04-06T13:22:59;3.47;;;2.10;;
55601;SDS011;59921;51.332;12.410;2023-04-06T13:25:25;3.72;;;2.30;;
55601;SDS011;59921;51.332;12.410;2023-04-06T13:27:50;3.08;;;2.10;;
55601;SDS011;59921;51.332;12.410;2023-04-06T13:30:16;2.42;;;2.08;;
55601;SDS011;59921;51.332;12.410;2023-04-06T13:32:42;2.53;;;1.92;;
55601;SDS011;59921;51.332;12.410;2023-04-06T13:35:08;3.58;;;2.10;;
55601;SDS011;59921;51.332;12.410;2023-04-06T13:37:34;2.42;;;1.90;;
55601;SDS011;59921;51.332;12.410;2023-04-06T13:40:01;3.28;;;2.17;;
55601;SDS011;59921;51.332;12.410;2023-04-06T13:42:28;3.33;;;2.00;;
55601;SDS011;59921;51.332;12.410;2023-04-06T13:44:54;2.15;;;1.60;;
55601;SDS011;59921;51.332;12.410;2023-04-06T13:47:20;3.03;;;1.95;;
55601;SDS011;59921;51.332;12.410;2023-04-06T13:49:46;2.97;;;2.00;;
55601;SDS011;59921;51.332;12.410;2023-04-06T13:52:12;2.72;;;1.77;;
55601;SDS011;59921;51.332;12.410;2023-04-06T13:54:37;3.53;;;1.92;;
55601;SDS011;59921;51.332;12.410;2023-04-06T13:57:03;3.10;;;1.88;;
55601;SDS011;59921;51.332;12.410;2023-04-06T13:59:36;2.60;;;1.92;;
55601;SDS011;59921;51.332;12.410;2023-04-06T14:02:02;2.30;;;1.77;;
55601;SDS011;59921;51.332;12.410;2023-04-06T14:04:28;2.40;;;1.65;;
55601;SDS011;59921;51.332;12.410;2023-04-06T14:06:55;2.90;;;2.10;;
55601;SDS011;59921;51.332;12.410;2023-04-06T14:09:24;2.72;;;2.08;;
55601;SDS011;59921;51.332;12.410;2023-04-06T14:11:50;2.60;;;1.80;;
55601;SDS011;59921;51.332;12.410;2023-04-06T14:14:16;3.28;;;1.83;;
55601;SDS011;59921;51.332;12.410;2023-04-06T14:16:42;2.60;;;1.90;;
55601;SDS011;59921;51.332;12.410;2023-04-06T14:19:11;3.15;;;1.90;;
55601;SDS011;59921;51.332;12.410;2023-04-06T14:21:38;2.33;;;1.77;;
55601;SDS011;59921;51.332;12.410;2023-04-06T14:24:06;2.55;;;1.90;;
55601;SDS011;59921;51.332;12.410;2023-04-06T14:26:35;3.35;;;1.83;;
55601;SDS011;59921;51.332;12.410;2023-04-06T14:29:01;2.47;;;1.80;;
55601;SDS011;59921;51.332;12.410;2023-04-06T14:31:27;2.72;;;1.90;;
55601;SDS011;59921;51.332;12.410;2023-04-06T14:33:53;3.40;;;1.80;;
55601;SDS011;59921;51.332;12.410;2023-04-06T14:36:19;2.30;;;1.90;;
55601;SDS011;59921;51.332;12.410;2023-04-06T14:38:45;2.58;;;1.85;;